| time (UTC) | temp F | wind direction | speed knots | gust knots | rain 1hr in | rain 24hr in | rain mn in | humidity % | barometer mb |
| 20260906021559 | 83 | 141 | 0.0 | 0.0 | 0.00 | 0.00 | 0.00 | 78 | 1010.7 |
| 20260906020055 | 83 | 141 | 0.0 | 0.9 | 0.00 | 0.00 | 0.00 | 77 | 1010.4 |
| 20260906014601 | 83 | 141 | 0.0 | 0.0 | 0.00 | 0.00 | 0.00 | 76 | 1010.2 |
| 20260906013052 | 83 | 141 | 0.0 | 0.0 | 0.00 | 0.00 | 0.00 | 75 | 1010.1 |
| 20260906011604 | 83 | 141 | 0.0 | 0.9 | 0.00 | 0.00 | 0.00 | 74 | 1010.0 |
| 20260906010051 | 84 | 141 | 0.0 | 0.0 | 0.00 | 0.00 | 0.00 | 71 | 1009.7 |
| 20260906004550 | 85 | 141 | 0.0 | 0.0 | 0.00 | 0.00 | 0.00 | 70 | 1009.6 |
| 20260906003050 | 86 | 141 | 0.0 | 0.0 | 0.00 | 0.00 | 0.00 | 68 | 1009.5 |
| 20260906001556 | 87 | 141 | 0.0 | 0.0 | 0.00 | 0.00 | 0.00 | 66 | 1009.5 |
| 20260906000050 | 88 | 141 | 0.0 | 0.0 | 0.00 | 0.00 | 0.00 | 64 | 1009.6 |
| 20260905234548 | 88 | 141 | 0.0 | 0.9 | 0.00 | 0.00 | 0.00 | 63 | 1009.6 |
| 20260905233105 | 88 | 141 | 0.0 | 0.9 | 0.00 | 0.00 | 0.00 | 61 | 1009.5 |
| 20260905231553 | 90 | 15 | 0.0 | 0.9 | 0.00 | 0.00 | 0.00 | 57 | 1009.6 |
| 20260905230048 | 91 | 15 | 0.0 | 0.9 | 0.00 | 0.00 | 0.00 | 55 | 1010.0 |
| 20260905224605 | 92 | 32 | 0.0 | 4.3 | 0.00 | 0.00 | 0.00 | 52 | 1009.9 |
| 20260905223044 | 95 | 63 | 0.0 | 1.7 | 0.00 | 0.00 | 0.00 | 53 | 1009.7 |
| 20260905221543 | 101 | 64 | 0.0 | 1.7 | 0.00 | 0.00 | 0.00 | 46 | 1009.7 |
| 20260905220048 | 103 | 72 | 0.0 | 0.9 | 0.00 | 0.00 | 0.00 | 44 | 1009.5 |
| 20260905214541 | 104 | 1 | 0.0 | 1.7 | 0.00 | 0.00 | 0.00 | 43 | 1009.2 |
| 20260905213038 | 104 | 227 | 0.0 | 1.7 | 0.00 | 0.00 | 0.00 | 43 | 1009.2 |
| 20260905211537 | 104 | 200 | 0.0 | 1.7 | 0.00 | 0.00 | 0.00 | 42 | 1009.3 |
| 20260905210036 | 103 | 159 | 0.0 | 1.7 | 0.00 | 0.00 | 0.00 | 43 | 1009.4 |
| 20260905204534 | 101 | 54 | 0.0 | 0.9 | 0.00 | 0.00 | 0.00 | 44 | 1009.6 |
| 20260905203038 | 104 | 343 | 0.0 | 1.7 | 0.00 | 0.00 | 0.00 | 41 | 1009.7 |
| 20260905201532 | 105 | 119 | 0.0 | 3.5 | 0.00 | 0.00 | 0.00 | 44 | 1009.8 |
| 20260905200031 | 106 | 143 | 0.0 | 1.7 | 0.00 | 0.00 | 0.00 | 39 | 1010.0 |
| 20260905194526 | 105 | 61 | 0.0 | 3.5 | 0.00 | 0.00 | 0.00 | 42 | 1010.1 |
| 20260905193023 | 105 | 298 | 0.0 | 2.6 | 0.00 | 0.00 | 0.00 | 41 | 1010.2 |
| 20260905191521 | 105 | 125 | 0.0 | 2.6 | 0.00 | 0.00 | 0.00 | 40 | 1010.5 |
| 20260905190017 | 104 | 111 | 0.0 | 3.5 | 0.00 | 0.00 | 0.00 | 42 | 1010.6 |
| 20260905184517 | 103 | 186 | 0.0 | 2.6 | 0.00 | 0.00 | 0.00 | 44 | 1010.8 |
| 20260905183011 | 102 | 207 | 0.9 | 3.5 | 0.00 | 0.00 | 0.00 | 46 | 1011.0 |
| 20260905181509 | 103 | 217 | 0.0 | 4.3 | 0.00 | 0.00 | 0.00 | 48 | 1011.3 |
| 20260905180005 | 103 | 217 | 0.0 | 0.9 | 0.00 | 0.00 | 0.00 | 48 | 1011.4 |
| 20260905174507 | 101 | 121 | 0.0 | 3.5 | 0.00 | 0.00 | 0.00 | 50 | 1011.3 |
| 20260905173006 | 101 | 72 | 0.9 | 2.6 | 0.00 | 0.00 | 0.00 | 51 | 1011.4 |
| 20260905171558 | 101 | 200 | 0.0 | 0.0 | 0.00 | 0.00 | 0.00 | 51 | 1011.6 |
| 20260905170059 | 100 | 146 | 0.0 | 0.0 | 0.00 | 0.00 | 0.00 | 53 | 1011.8 |
| 20260905164552 | 99 | 256 | 0.0 | 0.0 | 0.00 | 0.00 | 0.00 | 54 | 1011.9 |
| 20260905163051 | 98 | 181 | 0.0 | 0.0 | 0.00 | 0.00 | 0.00 | 56 | 1012.2 |
| 20260905161547 | 97 | 233 | 0.0 | 1.7 | 0.00 | 0.00 | 0.00 | 56 | 1012.3 |
| 20260905160043 | 95 | 270 | 0.0 | 0.9 | 0.00 | 0.00 | 0.00 | 59 | 1012.4 |
| 20260905154541 | 95 | 262 | 0.0 | 1.7 | 0.00 | 0.00 | 0.00 | 59 | 1012.5 |
| 20260905153038 | 94 | 53 | 0.0 | 2.6 | 0.00 | 0.00 | 0.00 | 60 | 1012.4 |
| 20260905151535 | 93 | 200 | 0.0 | 2.6 | 0.00 | 0.00 | 0.00 | 60 | 1012.5 |
| 20260905150032 | 92 | 249 | 0.9 | 4.3 | 0.00 | 0.00 | 0.00 | 62 | 1012.4 |
| 20260905144528 | 91 | 210 | 0.9 | 1.7 | 0.00 | 0.00 | 0.00 | 63 | 1012.3 |
| 20260905143030 | 89 | 135 | 0.0 | 0.9 | 0.00 | 0.00 | 0.00 | 67 | 1012.3 |
| 20260905141529 | 89 | 107 | 0.0 | 0.9 | 0.00 | 0.00 | 0.00 | 68 | 1012.4 |
| 20260905140027 | 90 | 236 | 0.0 | 1.7 | 0.00 | 0.00 | 0.00 | 65 | 1012.3 |
| 20260905134524 | 90 | 173 | 0.0 | 1.7 | 0.00 | 0.00 | 0.00 | 64 | 1012.3 |
| 20260905133020 | 89 | 225 | 0.0 | 0.9 | 0.00 | 0.00 | 0.00 | 69 | 1012.2 |
| 20260905131537 | 86 | 169 | 0.0 | 2.6 | 0.00 | 0.00 | 0.00 | 80 | 1012.3 |
| 20260905130013 | 80 | 170 | 0.0 | 0.0 | 0.00 | 0.00 | 0.00 | 90 | 1012.2 |
| 20260905124519 | 77 | 170 | 0.0 | 0.9 | 0.00 | 0.00 | 0.00 | 92 | 1012.2 |
| 20260905123008 | 76 | 173 | 0.0 | 0.9 | 0.00 | 0.00 | 0.00 | 95 | 1012.0 |
| 20260905121516 | 75 | 175 | 0.0 | 0.0 | 0.00 | 0.00 | 0.00 | 95 | 1011.9 |
| 20260905120009 | 74 | 174 | 0.0 | 0.0 | 0.00 | 0.00 | 0.00 | 95 | 1011.7 |
| 20260905114515 | 74 | 174 | 0.0 | 0.0 | 0.00 | 0.00 | 0.00 | 95 | 1011.5 |
| 20260905113004 | 74 | 174 | 0.0 | 0.0 | 0.00 | 0.00 | 0.00 | 95 | 1011.4 |
| 20260905111504 | 74 | 174 | 0.0 | 0.0 | 0.00 | 0.00 | 0.00 | 95 | 1011.3 |
| 20260905110004 | 74 | 174 | 0.0 | 0.0 | 0.00 | 0.00 | 0.00 | 95 | 1011.2 |
| 20260905104502 | 75 | 175 | 0.0 | 0.0 | 0.00 | 0.00 | 0.00 | 95 | 1011.3 |
| 20260905103001 | 75 | 175 | 0.0 | 0.9 | 0.00 | 0.00 | 0.00 | 95 | 1011.3 |
| 20260905101626 | 75 | 174 | 0.0 | 0.0 | 0.00 | 0.00 | 0.00 | 94 | 1011.3 |
| 20260905100059 | 75 | 174 | 0.0 | 0.0 | 0.00 | 0.00 | 0.00 | 94 | 1011.4 |
| 20260905094557 | 76 | 174 | 0.0 | 0.0 | 0.00 | 0.00 | 0.00 | 93 | 1011.2 |
| 20260905093059 | 76 | 174 | 0.0 | 0.0 | 0.00 | 0.00 | 0.00 | 92 | 1011.3 |
| 20260905091558 | 77 | 174 | 0.0 | 0.0 | 0.00 | 0.00 | 0.00 | 91 | 1011.3 |
| 20260905090050 | 77 | 175 | 0.0 | 0.0 | 0.00 | 0.00 | 0.00 | 91 | 1011.2 |
| 20260905084603 | 77 | 174 | 0.0 | 0.0 | 0.00 | 0.00 | 0.00 | 91 | 1011.3 |
| 20260905083046 | 78 | 175 | 0.0 | 0.0 | 0.00 | 0.00 | 0.00 | 90 | 1011.4 |
| 20260905081544 | 78 | 174 | 0.0 | 0.0 | 0.00 | 0.00 | 0.00 | 90 | 1011.3 |
| 20260905080042 | 78 | 174 | 0.0 | 0.0 | 0.00 | 0.00 | 0.00 | 89 | 1011.6 |
| 20260905074539 | 78 | 174 | 0.0 | 0.0 | 0.00 | 0.00 | 0.00 | 88 | 1011.5 |
| 20260905073137 | 78 | 175 | 0.0 | 0.0 | 0.00 | 0.00 | 0.00 | 87 | 1011.7 |
| 20260905071534 | 79 | 174 | 0.0 | 0.0 | 0.00 | 0.00 | 0.00 | 86 | 1011.7 |
| 20260905070032 | 79 | 174 | 0.0 | 0.0 | 0.00 | 0.00 | 0.00 | 84 | 1011.6 |
| 20260905064532 | 80 | 174 | 0.0 | 0.0 | 0.00 | 0.00 | 0.00 | 83 | 1011.7 |
| 20260905063029 | 80 | 174 | 0.0 | 0.0 | 0.00 | 0.00 | 0.00 | 83 | 1011.6 |
| 20260905061527 | 80 | 174 | 0.0 | 0.0 | 0.00 | 0.00 | 0.00 | 84 | 1011.8 |
| 20260905060031 | 79 | 174 | 0.0 | 0.9 | 0.00 | 0.00 | 0.00 | 85 | 1011.9 |
| 20260905054523 | 79 | 176 | 0.0 | 0.0 | 0.00 | 0.00 | 0.00 | 86 | 1011.8 |
| 20260905053022 | 79 | 174 | 0.0 | 0.9 | 0.00 | 0.00 | 0.00 | 86 | 1011.9 |
| 20260905051530 | 79 | 174 | 0.0 | 0.9 | 0.00 | 0.00 | 0.00 | 87 | 1011.8 |
| 20260905050018 | 79 | 174 | 0.0 | 0.9 | 0.00 | 0.00 | 0.00 | 87 | 1011.8 |
| 20260905044517 | 80 | 176 | 0.0 | 0.0 | 0.00 | 0.00 | 0.00 | 87 | 1011.7 |
| 20260905043018 | 80 | 176 | 0.0 | 0.0 | 0.00 | 0.00 | 0.00 | 87 | 1011.7 |
| 20260905041517 | 80 | 176 | 0.0 | 0.9 | 0.00 | 0.00 | 0.00 | 87 | 1011.7 |
| 20260905040016 | 80 | 177 | 0.0 | 0.0 | 0.00 | 0.00 | 0.00 | 87 | 1011.5 |
| 20260905034522 | 80 | 177 | 0.0 | 0.9 | 0.00 | 0.00 | 0.00 | 87 | 1011.5 |
| 20260905033019 | 80 | 217 | 0.0 | 0.0 | 0.00 | 0.00 | 0.00 | 86 | 1011.5 |
| 20260905031525 | 81 | 217 | 0.0 | 0.0 | 0.00 | 0.00 | 0.00 | 86 | 1011.6 |
| 20260905030023 | 81 | 217 | 0.0 | 0.0 | 0.00 | 0.00 | 0.00 | 85 | 1011.7 |
| 20260905024513 | 81 | 217 | 0.0 | 0.0 | 0.00 | 0.00 | 0.00 | 84 | 1011.7 |
| 20260905023025 | 82 | 217 | 0.0 | 0.0 | 0.00 | 0.00 | 0.00 | 83 | 1011.6 |